Time;durP1;ratioP1;P1;durP2;ratioP2;P2;SDS_P1;SDS_P2;PMS_P1;PMS_P2;Temp;Humidity;BMP_temperature;BMP_pressure;BME280_temperature;BME280_humidity;BME280_pressure;Samples;Min_cycle;Max_cycle;Signal;HPM_P1;HPM_P2
2022/07/27 00:01:50;;;;;;;3.93;2.27;;;18.70;46.50;;;;;;5060583;28;46319;-69
2022/07/27 00:04:16;;;;;;;7.23;2.37;;;18.60;46.80;;;;;;5061768;28;45950;-68
2022/07/27 00:06:43;;;;;;;5.10;2.43;;;18.50;47.40;;;;;;5059760;28;46450;-68
2022/07/27 00:09:08;;;;;;;7.10;2.47;;;18.40;47.90;;;;;;5060077;28;46590;-67
2022/07/27 00:11:34;;;;;;;3.93;2.40;;;18.20;48.50;;;;;;5061368;28;46321;-68
2022/07/27 00:13:59;;;;;;;7.93;2.80;;;18.10;49.10;;;;;;5059707;28;46377;-68
2022/07/27 00:16:25;;;;;;;11.30;2.50;;;18.10;49.70;;;;;;5061114;28;46458;-67
2022/07/27 00:18:50;;;;;;;4.50;2.27;;;18.00;50.00;;;;;;5059913;28;46507;-68
2022/07/27 00:21:16;;;;;;;4.70;2.30;;;17.90;51.40;;;;;;5060397;28;47162;-67
2022/07/27 00:23:42;;;;;;;6.57;2.20;;;17.90;50.40;;;;;;5060702;28;46425;-67
2022/07/27 00:26:07;;;;;;;6.53;2.27;;;17.90;50.70;;;;;;5060119;28;46336;-66
2022/07/27 00:28:33;;;;;;;3.00;2.00;;;17.80;50.70;;;;;;5060454;28;46525;-67
2022/07/27 00:30:58;;;;;;;4.83;2.30;;;17.60;50.10;;;;;;5059623;28;46409;-68
2022/07/27 00:33:24;;;;;;;4.50;2.63;;;17.60;51.10;;;;;;5059949;28;46453;-68
2022/07/27 00:35:50;;;;;;;5.13;2.80;;;17.60;51.20;;;;;;5059806;28;46456;-68
2022/07/27 00:38:15;;;;;;;3.77;2.50;;;17.50;51.20;;;;;;5060519;28;46638;-68
2022/07/27 00:40:41;;;;;;;4.90;2.50;;;17.50;51.50;;;;;;5059197;28;46634;-68
2022/07/27 00:43:07;;;;;;;4.87;2.43;;;17.50;51.70;;;;;;5058610;28;45926;-68
2022/07/27 00:45:32;;;;;;;5.20;2.30;;;17.50;52.00;;;;;;5058353;28;46329;-68
2022/07/27 00:47:58;;;;;;;6.37;2.30;;;17.40;52.00;;;;;;5059816;28;46637;-68
2022/07/27 00:50:23;;;;;;;3.90;2.00;;;17.40;52.20;;;;;;5059600;28;46413;-68
2022/07/27 00:52:51;;;;;;;5.37;2.33;;;17.50;52.00;;;;;;5055181;28;46759;-67
2022/07/27 00:55:16;;;;;;;3.93;2.20;;;17.50;51.70;;;;;;5059261;28;46364;-68
2022/07/27 00:57:42;;;;;;;6.77;2.20;;;17.60;51.50;;;;;;5057084;28;46293;-67
2022/07/27 01:00:09;;;;;;;5.07;2.37;;;17.70;51.30;;;;;;5059350;28;48376;-67
2022/07/27 01:02:35;;;;;;;4.80;2.30;;;17.80;51.20;;;;;;5058511;28;47080;-67
2022/07/27 01:05:00;;;;;;;9.00;2.40;;;17.80;50.90;;;;;;5058656;28;45950;-67
2022/07/27 01:07:26;;;;;;;4.13;2.00;;;17.90;50.80;;;;;;5059406;28;46727;-67
2022/07/27 01:09:55;;;;;;;3.97;1.97;;;17.90;50.70;;;;;;5058807;28;46799;-67
2022/07/27 01:12:21;;;;;;;5.27;2.23;;;17.90;50.70;;;;;;5059792;28;46325;-67
2022/07/27 01:14:48;;;;;;;11.63;3.27;;;17.90;50.80;;;;;;5059104;28;46311;-67
2022/07/27 01:17:15;;;;;;;4.93;1.93;;;17.90;50.90;;;;;;5058532;28;46144;-67
2022/07/27 01:19:41;;;;;;;3.70;2.20;;;17.90;50.70;;;;;;5059195;28;46574;-67
2022/07/27 01:22:07;;;;;;;5.30;2.30;;;18.00;50.70;;;;;;5056803;28;46398;-67
2022/07/27 01:24:33;;;;;;;3.90;2.30;;;18.00;50.80;;;;;;5060344;28;46342;-66
2022/07/27 01:27:00;;;;;;;5.80;2.03;;;18.00;51.00;;;;;;5058200;28;46436;-67
2022/07/27 01:29:26;;;;;;;16.77;2.40;;;18.00;51.10;;;;;;5059665;28;47093;-68
2022/07/27 01:31:52;;;;;;;3.17;2.20;;;18.10;51.20;;;;;;5061274;28;46393;-67
2022/07/27 01:34:18;;;;;;;10.60;2.37;;;18.10;51.10;;;;;;5061161;28;46353;-67
2022/07/27 01:36:44;;;;;;;9.73;2.10;;;18.10;51.20;;;;;;5059987;28;46473;-68
2022/07/27 01:39:14;;;;;;;5.90;2.50;;;18.10;51.20;;;;;;5063861;28;46517;-67
2022/07/27 01:41:40;;;;;;;7.70;2.50;;;18.10;51.00;;;;;;5062391;28;46298;-66
2022/07/27 01:44:05;;;;;;;5.40;2.33;;;18.10;51.00;;;;;;5063641;28;46469;-67
2022/07/27 01:46:31;;;;;;;5.30;2.40;;;18.10;51.00;;;;;;5063012;28;46291;-67
2022/07/27 01:48:56;;;;;;;6.80;2.30;;;18.10;51.20;;;;;;5063228;28;48008;-67
2022/07/27 01:51:22;;;;;;;7.03;2.57;;;18.00;51.30;;;;;;5063577;28;46452;-67
2022/07/27 01:53:48;;;;;;;3.50;2.27;;;18.00;51.20;;;;;;5059503;28;45786;-67
2022/07/27 01:56:13;;;;;;;3.20;1.73;;;17.90;51.30;;;;;;5059902;28;46517;-67
2022/07/27 01:58:40;;;;;;;4.77;2.23;;;17.90;51.30;;;;;;5058390;28;46548;-67
2022/07/27 02:01:06;;;;;;;6.70;2.30;;;17.90;50.20;;;;;;5062134;28;46272;-67
2022/07/27 02:03:32;;;;;;;5.40;1.97;;;17.80;51.10;;;;;;5062089;28;46433;-67
2022/07/27 02:05:58;;;;;;;7.53;2.60;;;17.90;51.20;;;;;;5062109;28;46423;-67
2022/07/27 02:08:24;;;;;;;3.63;2.33;;;17.90;51.10;;;;;;5061044;28;46427;-68
2022/07/27 02:13:34;;;;;;;6.10;2.93;;;17.90;51.00;;;;;;5059164;28;46412;-67
2022/07/27 02:16:00;;;;;;;7.13;2.33;;;17.90;51.00;;;;;;5058504;28;45887;-67
2022/07/27 02:18:25;;;;;;;6.33;2.37;;;17.90;51.00;;;;;;5059091;28;46206;-67
2022/07/27 02:20:51;;;;;;;3.90;2.13;;;17.90;51.00;;;;;;5061145;28;46408;-67
2022/07/27 02:23:17;;;;;;;13.33;2.03;;;18.00;51.00;;;;;;5061937;28;46379;-68
2022/07/27 02:25:43;;;;;;;5.63;2.60;;;17.90;51.10;;;;;;5061857;28;46318;-67
2022/07/27 02:28:08;;;;;;;9.93;2.60;;;17.90;51.30;;;;;;5060043;28;46433;-68
2022/07/27 02:30:34;;;;;;;5.50;2.57;;;17.90;51.60;;;;;;5060912;28;46491;-68
2022/07/27 02:33:00;;;;;;;6.37;2.33;;;17.90;51.60;;;;;;5057426;28;46366;-68
2022/07/27 02:35:25;;;;;;;8.07;2.60;;;18.00;51.70;;;;;;5058975;28;46174;-68
2022/07/27 02:37:51;;;;;;;4.40;2.20;;;18.00;51.50;;;;;;5058104;28;46937;-67
2022/07/27 02:40:17;;;;;;;9.83;2.30;;;18.10;51.30;;;;;;5060470;28;46691;-68
2022/07/27 02:42:46;;;;;;;5.00;2.47;;;18.10;51.00;;;;;;5060409;28;46457;-68
2022/07/27 02:45:13;;;;;;;5.83;2.40;;;18.10;51.10;;;;;;5059148;28;46378;-67
2022/07/27 02:47:39;;;;;;;6.23;2.70;;;18.10;51.00;;;;;;5059570;28;46478;-67
2022/07/27 02:50:06;;;;;;;6.23;2.47;;;18.10;51.10;;;;;;5061097;28;46387;-67
2022/07/27 02:52:32;;;;;;;8.17;2.47;;;18.10;51.30;;;;;;5060759;28;46509;-67
2022/07/27 02:54:57;;;;;;;7.83;2.40;;;18.00;51.60;;;;;;5062296;28;46366;-68
2022/07/27 02:57:23;;;;;;;5.77;2.63;;;18.00;51.80;;;;;;5058236;28;46902;-68
2022/07/27 02:59:49;;;;;;;4.67;2.50;;;18.00;51.80;;;;;;5060927;28;46313;-67
2022/07/27 03:02:14;;;;;;;8.50;2.97;;;18.10;51.80;;;;;;5060042;28;46407;-67
2022/07/27 03:04:40;;;;;;;6.73;2.33;;;18.10;51.70;;;;;;5061658;28;46397;-67
2022/07/27 03:07:05;;;;;;;6.03;2.60;;;18.20;51.50;;;;;;5061265;28;48161;-67
2022/07/27 03:09:31;;;;;;;5.10;2.37;;;18.20;51.10;;;;;;5062293;28;45830;-67
2022/07/27 03:11:57;;;;;;;6.10;2.20;;;18.20;51.10;;;;;;5059406;28;46131;-68
2022/07/27 03:14:23;;;;;;;4.80;2.60;;;18.20;51.00;;;;;;5060792;28;46316;-67
2022/07/27 03:16:48;;;;;;;4.50;2.30;;;18.20;50.90;;;;;;5060283;28;47970;-67
2022/07/27 03:19:14;;;;;;;14.17;2.30;;;18.20;50.60;;;;;;5061591;28;46421;-67
2022/07/27 03:21:39;;;;;;;5.83;2.27;;;18.20;50.50;;;;;;5060988;28;46431;-67
2022/07/27 03:24:05;;;;;;;10.13;2.30;;;18.20;50.50;;;;;;5057509;28;46433;-67
2022/07/27 03:26:32;;;;;;;5.57;2.20;;;18.10;50.50;;;;;;5062382;28;45918;-67
2022/07/27 03:28:58;;;;;;;4.60;2.37;;;18.10;51.80;;;;;;5060344;28;46628;-67
2022/07/27 03:31:23;;;;;;;10.87;2.40;;;18.10;50.60;;;;;;5061032;28;46370;-67
2022/07/27 03:33:49;;;;;;;4.97;2.23;;;18.10;50.60;;;;;;5061794;28;46484;-67
2022/07/27 03:36:15;;;;;;;3.77;2.50;;;18.10;50.50;;;;;;5060389;28;46360;-68
2022/07/27 03:38:40;;;;;;;5.37;2.37;;;18.10;50.50;;;;;;5060616;28;46302;-68
2022/07/27 03:41:06;;;;;;;6.00;2.43;;;18.10;49.40;;;;;;5060810;28;46436;-68
2022/07/27 03:43:32;;;;;;;4.00;2.10;;;18.10;51.60;;;;;;5059522;28;46390;-68
2022/07/27 03:45:58;;;;;;;5.03;2.43;;;18.10;50.20;;;;;;5060870;28;46580;-68
2022/07/27 03:48:23;;;;;;;9.50;2.73;;;18.20;50.00;;;;;;5059678;28;46387;-67
2022/07/27 03:50:49;;;;;;;6.50;2.40;;;18.20;49.90;;;;;;5060849;28;46513;-68
2022/07/27 03:53:16;;;;;;;6.70;2.57;;;18.10;49.80;;;;;;5060406;28;46471;-68
2022/07/27 03:55:42;;;;;;;10.40;3.30;;;18.10;49.90;;;;;;5060746;28;46416;-68
2022/07/27 03:58:08;;;;;;;7.23;3.07;;;18.10;49.60;;;;;;5058946;28;45886;-68
2022/07/27 04:00:34;;;;;;;6.33;2.40;;;18.00;49.50;;;;;;5060582;28;46390;-68
2022/07/27 04:03:00;;;;;;;5.60;2.73;;;18.00;49.40;;;;;;5060090;28;46346;-67
2022/07/27 04:05:25;;;;;;;7.40;2.63;;;18.00;49.40;;;;;;5060481;28;46371;-68
2022/07/27 04:07:51;;;;;;;13.50;3.00;;;18.00;49.50;;;;;;5061329;28;46368;-67
2022/07/27 04:10:17;;;;;;;4.07;2.17;;;17.90;49.70;;;;;;5060667;28;46326;-68
2022/07/27 04:12:42;;;;;;;14.43;3.37;;;17.90;51.10;;;;;;5058931;28;45871;-68
2022/07/27 04:15:09;;;;;;;5.77;2.43;;;17.90;50.00;;;;;;5061638;28;46279;-68
2022/07/27 04:17:35;;;;;;;7.00;2.87;;;17.90;50.00;;;;;;5060234;28;46318;-68
2022/07/27 04:20:00;;;;;;;7.73;2.67;;;17.80;50.30;;;;;;5058215;28;46450;-68
2022/07/27 04:22:26;;;;;;;6.40;2.63;;;17.70;50.70;;;;;;5059653;28;46408;-67
2022/07/27 04:24:51;;;;;;;8.50;2.83;;;17.70;51.20;;;;;;5059940;28;47014;-67
2022/07/27 04:27:17;;;;;;;12.17;2.47;;;17.60;51.40;;;;;;5060168;28;46461;-67
2022/07/27 04:29:43;;;;;;;4.43;2.37;;;17.60;51.80;;;;;;5061160;28;46358;-67
2022/07/27 04:32:08;;;;;;;7.13;2.30;;;17.60;51.90;;;;;;5061324;28;46304;-67
2022/07/27 04:34:34;;;;;;;5.53;2.63;;;17.70;52.00;;;;;;5063890;28;47172;-68
2022/07/27 04:37:00;;;;;;;6.90;2.73;;;17.80;51.90;;;;;;5059331;28;46311;-67
2022/07/27 04:39:25;;;;;;;10.20;2.47;;;17.90;51.60;;;;;;5060128;28;46715;-68
2022/07/27 04:41:51;;;;;;;5.50;2.70;;;18.00;51.60;;;;;;5060037;28;46367;-67
2022/07/27 04:44:17;;;;;;;9.73;2.80;;;18.10;51.40;;;;;;5059208;28;46510;-66
2022/07/27 04:46:42;;;;;;;4.90;2.40;;;18.30;51.20;;;;;;5057204;28;46274;-67
2022/07/27 04:49:08;;;;;;;6.13;2.80;;;18.40;51.00;;;;;;5058905;28;46361;-68
2022/07/27 04:51:34;;;;;;;4.90;2.40;;;18.40;50.90;;;;;;5058661;28;46603;-67
2022/07/27 04:53:59;;;;;;;10.20;2.70;;;18.50;51.10;;;;;;5059732;28;46483;-67
2022/07/27 04:56:26;;;;;;;8.90;2.30;;;18.50;51.00;;;;;;5059895;28;45769;-68
2022/07/27 04:58:52;;;;;;;10.83;2.00;;;18.60;51.00;;;;;;5058933;28;46413;-67
2022/07/27 05:01:17;;;;;;;5.93;2.10;;;18.70;50.70;;;;;;5060712;28;46511;-67
2022/07/27 05:03:43;;;;;;;4.50;2.57;;;18.80;50.50;;;;;;5058849;28;46636;-68
2022/07/27 05:06:08;;;;;;;5.87;2.10;;;19.00;50.10;;;;;;5059818;28;46449;-67
2022/07/27 05:08:34;;;;;;;5.30;2.30;;;19.20;49.80;;;;;;5058571;28;46474;-68
2022/07/27 05:11:00;;;;;;;6.13;2.10;;;19.30;49.80;;;;;;5060067;28;46321;-67
2022/07/27 05:13:26;;;;;;;4.83;2.27;;;19.30;49.50;;;;;;5059556;28;47094;-68
2022/07/27 05:15:51;;;;;;;4.70;2.70;;;19.30;48.90;;;;;;5059134;28;46323;-67
2022/07/27 05:18:17;;;;;;;5.63;2.10;;;19.40;48.20;;;;;;5057615;28;46320;-67
2022/07/27 05:20:43;;;;;;;5.23;2.10;;;19.50;47.50;;;;;;5060149;28;46366;-67
2022/07/27 05:23:09;;;;;;;13.93;2.80;;;19.60;47.20;;;;;;5058696;28;47073;-67
2022/07/27 05:25:35;;;;;;;4.87;2.43;;;19.70;47.40;;;;;;5059875;28;46386;-68
2022/07/27 05:28:00;;;;;;;6.33;2.53;;;19.80;46.60;;;;;;5056989;28;46441;-68
2022/07/27 05:30:26;;;;;;;12.70;2.40;;;19.90;46.20;;;;;;5059096;28;46635;-67
2022/07/27 05:32:52;;;;;;;5.77;2.50;;;20.00;45.70;;;;;;5057307;28;46427;-67
2022/07/27 05:35:18;;;;;;;7.57;2.40;;;20.30;44.80;;;;;;5060075;28;46458;-67
2022/07/27 05:37:43;;;;;;;5.17;2.57;;;20.60;43.50;;;;;;5058328;28;46361;-68
2022/07/27 05:40:09;;;;;;;5.13;1.90;;;20.90;41.80;;;;;;5059908;28;45906;-67
2022/07/27 05:42:35;;;;;;;14.50;2.60;;;21.20;40.90;;;;;;5058890;28;46145;-67
2022/07/27 05:45:01;;;;;;;5.03;2.37;;;21.50;40.10;;;;;;5060088;28;45851;-67
2022/07/27 05:47:26;;;;;;;4.13;2.00;;;21.60;39.40;;;;;;5057794;28;46373;-67
2022/07/27 05:49:52;;;;;;;7.00;2.10;;;21.70;39.30;;;;;;5060264;28;46575;-67
2022/07/27 05:52:19;;;;;;;5.17;2.03;;;22.20;38.30;;;;;;5059105;28;47092;-66
2022/07/27 05:54:45;;;;;;;4.10;2.10;;;23.30;37.10;;;;;;5058848;28;46475;-67
2022/07/27 05:57:11;;;;;;;4.30;2.13;;;24.20;34.70;;;;;;5056985;28;46631;-67
2022/07/27 05:59:37;;;;;;;5.73;2.50;;;24.50;33.50;;;;;;5057776;28;46469;-67
2022/07/27 06:02:03;;;;;;;3.10;2.10;;;24.30;33.40;;;;;;5059849;28;48337;-66
2022/07/27 06:04:28;;;;;;;4.13;1.90;;;24.00;33.50;;;;;;5053443;28;46400;-69
2022/07/27 06:09:38;;;;;;;6.90;2.03;;;23.00;34.10;;;;;;5058481;28;46477;-68
2022/07/27 06:12:04;;;;;;;6.10;2.23;;;22.30;33.50;;;;;;5057634;28;46440;-68
2022/07/27 06:14:31;;;;;;;4.33;2.67;;;22.00;33.40;;;;;;5058464;28;46571;-68
2022/07/27 06:16:57;;;;;;;6.70;2.30;;;21.70;33.50;;;;;;5056125;28;45916;-67
2022/07/27 06:19:22;;;;;;;7.87;2.37;;;21.70;33.30;;;;;;5058781;28;46535;-69
2022/07/27 06:21:48;;;;;;;12.33;2.60;;;21.70;32.70;;;;;;5062236;28;47019;-68
2022/07/27 06:24:13;;;;;;;4.97;2.13;;;21.90;32.30;;;;;;5058857;28;46441;-67
2022/07/27 06:26:39;;;;;;;8.73;2.67;;;21.80;32.30;;;;;;5060596;28;46454;-66
2022/07/27 06:29:04;;;;;;;10.57;3.60;;;21.90;32.00;;;;;;5062123;28;45834;-68
2022/07/27 06:31:30;;;;;;;4.53;2.43;;;22.10;31.40;;;;;;5060703;28;47033;-67
2022/07/27 06:33:56;;;;;;;11.97;2.73;;;22.20;30.90;;;;;;5060213;28;46470;-67
2022/07/27 06:36:21;;;;;;;5.60;2.53;;;22.10;30.30;;;;;;5059601;28;46456;-68
2022/07/27 06:38:47;;;;;;;12.27;2.50;;;22.00;29.90;;;;;;5059509;28;46398;-68
2022/07/27 06:41:13;;;;;;;7.33;2.00;;;22.60;28.90;;;;;;5058162;28;46528;-69
2022/07/27 06:43:39;;;;;;;9.10;2.10;;;22.70;29.60;;;;;;5059851;28;46348;-68
2022/07/27 06:46:06;;;;;;;4.57;2.10;;;23.10;29.10;;;;;;5060340;28;46361;-68
2022/07/27 06:48:32;;;;;;;5.40;2.30;;;23.10;28.60;;;;;;5058008;28;46110;-68
2022/07/27 06:50:58;;;;;;;6.40;2.10;;;23.20;28.00;;;;;;5061486;28;47299;-67
2022/07/27 06:53:25;;;;;;;4.67;2.20;;;23.40;27.30;;;;;;5058502;28;46457;-68
2022/07/27 06:55:51;;;;;;;12.53;2.70;;;23.80;26.70;;;;;;5061772;28;45894;-67
2022/07/27 06:58:17;;;;;;;7.07;2.20;;;23.80;26.00;;;;;;5059929;28;46473;-69
2022/07/27 07:00:43;;;;;;;6.83;2.17;;;23.80;26.00;;;;;;5064450;28;46518;-68
2022/07/27 07:03:10;;;;;;;19.93;2.27;;;23.80;25.50;;;;;;5060120;28;46418;-67
2022/07/27 07:05:42;;;;;;;4.97;2.13;;;23.80;25.10;;;;;;5059907;28;46429;-68
2022/07/27 07:08:10;;;;;;;8.87;2.23;;;23.80;24.20;;;;;;5059423;28;45950;-67
2022/07/27 07:10:37;;;;;;;8.37;2.57;;;23.70;24.70;;;;;;5060592;28;46955;-69
2022/07/27 07:13:03;;;;;;;6.80;2.30;;;23.60;23.50;;;;;;5059584;28;46597;-67
2022/07/27 07:15:29;;;;;;;8.67;2.50;;;23.60;23.70;;;;;;5060028;28;46294;-67
2022/07/27 07:17:55;;;;;;;5.37;2.33;;;23.50;23.20;;;;;;5059907;28;46421;-68
2022/07/27 07:20:21;;;;;;;11.73;2.93;;;23.60;23.00;;;;;;5060824;28;47249;-68
2022/07/27 07:22:47;;;;;;;7.73;1.97;;;23.60;23.30;;;;;;5060388;28;46299;-68
2022/07/27 07:25:12;;;;;;;8.70;2.23;;;23.80;22.60;;;;;;5061212;28;46426;-68
2022/07/27 07:27:38;;;;;;;7.97;2.17;;;23.70;22.50;;;;;;5065850;28;46225;-68
2022/07/27 07:30:04;;;;;;;8.33;2.33;;;23.80;23.50;;;;;;5059905;28;46351;-67
2022/07/27 07:32:30;;;;;;;3.87;1.97;;;23.70;22.60;;;;;;5060169;28;46420;-68
2022/07/27 07:34:55;;;;;;;8.70;2.07;;;24.00;22.40;;;;;;5058712;28;46393;-68
2022/07/27 07:37:21;;;;;;;6.20;2.30;;;24.00;22.40;;;;;;5059008;28;45967;-68
2022/07/27 07:39:47;;;;;;;8.00;2.63;;;24.20;21.90;;;;;;5059040;28;46484;-68
2022/07/27 07:42:12;;;;;;;4.60;2.47;;;24.40;21.70;;;;;;5057053;28;46449;-69
2022/07/27 07:44:40;;;;;;;5.50;2.30;;;24.60;21.40;;;;;;5058025;28;46555;-68
2022/07/27 07:47:06;;;;;;;7.67;2.40;;;24.40;21.40;;;;;;5054551;28;46427;-67
2022/07/27 07:49:32;;;;;;;10.57;2.40;;;24.40;21.50;;;;;;5058277;28;47277;-66
2022/07/27 07:51:58;;;;;;;5.00;2.30;;;24.40;21.30;;;;;;5058931;28;46475;-66
2022/07/27 07:54:24;;;;;;;3.93;2.23;;;24.10;20.30;;;;;;5060806;28;46396;-66
2022/07/27 07:56:49;;;;;;;6.73;2.93;;;23.90;20.70;;;;;;5058349;28;46438;-67
2022/07/27 07:59:15;;;;;;;6.37;2.20;;;24.10;20.80;;;;;;5059464;28;47307;-67
2022/07/27 08:01:40;;;;;;;12.77;2.00;;;24.30;20.60;;;;;;5060104;28;46492;-67
2022/07/27 08:04:06;;;;;;;8.03;2.80;;;24.50;19.60;;;;;;5060051;28;46463;-70
2022/07/27 08:06:32;;;;;;;6.67;2.60;;;24.50;18.70;;;;;;5059128;28;46707;-67
2022/07/27 08:08:57;;;;;;;8.87;2.60;;;24.60;18.90;;;;;;5060102;28;48849;-69
2022/07/27 08:11:23;;;;;;;3.63;2.30;;;24.70;18.80;;;;;;5058427;28;46419;-67
2022/07/27 08:13:49;;;;;;;10.73;2.77;;;24.50;18.50;;;;;;5060315;28;46511;-69
2022/07/27 08:16:15;;;;;;;6.23;3.00;;;24.40;18.90;;;;;;5059460;28;46855;-69
2022/07/27 08:18:41;;;;;;;9.80;2.13;;;24.50;19.10;;;;;;5058897;28;46482;-69
2022/07/27 08:21:07;;;;;;;9.83;3.03;;;24.30;18.50;;;;;;5059549;28;46468;-66
2022/07/27 08:23:32;;;;;;;9.83;3.50;;;24.40;19.00;;;;;;5056216;28;46604;-67
2022/07/27 08:25:58;;;;;;;7.10;3.13;;;24.60;18.70;;;;;;5059408;28;46455;-66
2022/07/27 08:28:23;;;;;;;10.30;2.90;;;24.70;18.10;;;;;;5057639;28;46504;-68
2022/07/27 08:30:49;;;;;;;7.30;2.70;;;24.70;17.80;;;;;;5060405;28;47291;-69
2022/07/27 08:33:15;;;;;;;12.27;3.40;;;24.90;17.70;;;;;;5060024;28;46407;-66
2022/07/27 08:35:41;;;;;;;13.73;2.80;;;25.00;17.20;;;;;;5056414;28;46413;-68
2022/07/27 08:38:08;;;;;;;11.73;3.10;;;25.10;17.30;;;;;;5056678;28;46359;-68
2022/07/27 08:40:35;;;;;;;6.30;2.50;;;25.30;17.20;;;;;;5058094;28;46292;-67
2022/07/27 08:43:02;;;;;;;4.00;2.10;;;25.40;17.10;;;;;;5056192;28;46357;-69
2022/07/27 08:45:27;;;;;;;4.00;1.90;;;25.50;18.10;;;;;;5058173;28;46521;-68
2022/07/27 08:47:53;;;;;;;5.47;2.07;;;25.60;16.90;;;;;;5055129;28;47037;-69
2022/07/27 08:50:23;;;;;;;5.37;2.00;;;25.50;16.60;;;;;;5059552;28;46454;-67
2022/07/27 08:52:53;;;;;;;9.30;2.00;;;25.50;16.90;;;;;;5059293;28;46161;-68
2022/07/27 08:55:20;;;;;;;12.33;2.57;;;25.60;16.60;;;;;;5059710;28;46768;-68
2022/07/27 08:57:45;;;;;;;4.33;1.97;;;25.50;16.10;;;;;;5057816;28;46513;-68
2022/07/27 09:00:11;;;;;;;4.57;2.00;;;25.30;16.00;;;;;;5059238;28;46392;-67
2022/07/27 09:02:39;;;;;;;7.37;2.00;;;25.30;15.70;;;;;;5056794;28;46487;-69
2022/07/27 09:05:06;;;;;;;4.43;2.17;;;25.30;15.60;;;;;;5059184;28;45940;-64
2022/07/27 09:07:32;;;;;;;5.43;1.93;;;25.50;15.70;;;;;;5054236;28;47218;-67
2022/07/27 09:09:58;;;;;;;7.00;1.93;;;25.50;15.20;;;;;;5058295;28;45961;-66
2022/07/27 09:12:28;;;;;;;6.40;1.73;;;25.70;14.50;;;;;;5057094;28;46343;-66
2022/07/27 09:15:06;;;;;;;3.97;1.70;;;25.90;14.10;;;;;;5057169;28;46659;-67
2022/07/27 09:17:32;;;;;;;10.10;1.93;;;26.40;13.30;;;;;;5057117;28;46666;-69
2022/07/27 09:20:00;;;;;;;4.77;2.00;;;26.50;13.40;;;;;;5057694;28;46407;-66
2022/07/27 09:22:51;;;;;;;14.37;1.93;;;26.40;13.30;;;;;;5057397;28;46387;-67
2022/07/27 09:25:19;;;;;;;8.23;2.00;;;26.70;13.60;;;;;;5049784;28;46523;-67
2022/07/27 09:27:48;;;;;;;4.30;1.80;;;27.50;12.60;;;;;;5056523;28;46884;-66
2022/07/27 09:30:16;;;;;;;4.93;2.07;;;27.80;11.60;;;;;;5056705;28;46417;-68
2022/07/27 09:33:13;;;;;;;5.53;1.90;;;27.60;11.40;;;;;;5058677;28;46285;-67
2022/07/27 09:35:40;;;;;;;8.07;1.90;;;27.10;11.50;;;;;;5049623;28;46473;-67
2022/07/27 09:38:23;;;;;;;4.67;2.23;;;26.80;13.00;;;;;;5055252;28;46624;-67
2022/07/27 09:41:06;;;;;;;5.13;1.80;;;27.10;11.50;;;;;;5059583;28;46680;-66
2022/07/27 09:43:45;;;;;;;12.33;1.80;;;26.90;11.70;;;;;;5061734;28;46426;-64
2022/07/27 09:46:11;;;;;;;5.60;1.70;;;26.90;11.50;;;;;;5059330;28;45930;-64
2022/07/27 09:48:36;;;;;;;5.00;1.93;;;27.30;10.90;;;;;;5058391;28;46309;-65
2022/07/27 09:51:04;;;;;;;5.13;1.90;;;27.70;10.30;;;;;;5059407;28;46345;-67
2022/07/27 09:53:31;;;;;;;6.80;2.00;;;27.90;10.30;;;;;;5065439;28;46426;-66
2022/07/27 09:56:04;;;;;;;4.80;1.73;;;28.00;10.40;;;;;;5064862;28;46393;-66
2022/07/27 09:58:55;;;;;;;5.83;1.70;;;28.20;9.70;;;;;;5062658;28;46697;-64
2022/07/27 10:01:33;;;;;;;8.50;1.90;;;28.60;9.50;;;;;;5062808;28;46334;-67
2022/07/27 10:04:04;;;;;;;4.53;2.07;;;28.50;9.20;;;;;;5068906;28;46342;-64
2022/07/27 10:06:30;;;;;;;5.10;2.00;;;28.10;10.00;;;;;;5066653;28;46458;-65
2022/07/27 10:08:57;;;;;;;8.97;1.90;;;27.80;9.20;;;;;;5064330;28;48043;-64
2022/07/27 10:11:24;;;;;;;5.10;2.00;;;27.00;10.10;;;;;;5069583;28;46661;-65
2022/07/27 10:13:51;;;;;;;9.63;2.40;;;27.00;10.70;;;;;;5062100;28;46531;-66
2022/07/27 10:16:28;;;;;;;5.43;2.10;;;27.00;10.70;;;;;;5063422;28;46424;-66
2022/07/27 10:19:18;;;;;;;8.20;1.83;;;27.10;10.30;;;;;;5061891;28;46415;-66
2022/07/27 10:21:46;;;;;;;5.27;1.80;;;26.90;10.60;;;;;;5060077;28;46417;-66
2022/07/27 10:24:24;;;;;;;4.73;1.87;;;26.90;10.60;;;;;;5063256;28;46430;-66
2022/07/27 10:26:50;;;;;;;5.90;1.97;;;27.10;10.10;;;;;;5061877;28;46671;-67
2022/07/27 10:29:18;;;;;;;10.20;2.07;;;27.50;9.90;;;;;;5062803;28;46341;-67
2022/07/27 10:31:52;;;;;;;8.33;2.00;;;27.60;9.80;;;;;;5061576;28;46561;-66
2022/07/27 10:34:38;;;;;;;4.33;1.93;;;27.60;9.70;;;;;;5063958;28;46401;-65
2022/07/27 10:37:14;;;;;;;5.53;2.20;;;27.20;9.40;;;;;;5062084;28;46322;-65
2022/07/27 10:39:42;;;;;;;5.50;2.10;;;27.50;9.40;;;;;;5057230;28;46763;-65
2022/07/27 10:42:19;;;;;;;5.07;2.23;;;27.40;9.80;;;;;;5058319;28;45839;-65
2022/07/27 10:45:15;;;;;;;7.47;2.37;;;27.20;9.90;;;;;;5060704;28;46570;-66
2022/07/27 10:47:47;;;;;;;5.00;2.17;;;27.30;10.10;;;;;;5049639;28;46445;-66
2022/07/27 10:50:15;;;;;;;8.13;2.30;;;27.60;9.70;;;;;;5058205;28;47512;-63
2022/07/27 10:52:45;;;;;;;6.33;2.00;;;27.90;9.20;;;;;;5061094;28;46584;-64
2022/07/27 10:55:29;;;;;;;5.93;1.80;;;28.00;9.10;;;;;;5061574;28;46690;-64
2022/07/27 10:58:17;;;;;;;4.20;1.90;;;28.00;8.70;;;;;;5061344;28;46429;-64
2022/07/27 11:00:48;;;;;;;5.47;2.10;;;27.50;9.10;;;;;;5061091;28;46416;-65
2022/07/27 11:03:32;;;;;;;10.27;1.93;;;27.40;9.50;;;;;;5061044;28;46531;-67
2022/07/27 11:05:57;;;;;;;5.13;1.80;;;27.00;9.50;;;;;;5064386;28;46537;-65
2022/07/27 11:08:28;;;;;;;5.63;2.20;;;26.40;9.80;;;;;;5059812;28;46551;-64
2022/07/27 11:10:53;;;;;;;4.27;2.10;;;26.50;10.00;;;;;;5062012;28;47091;-65
2022/07/27 11:13:22;;;;;;;5.07;2.33;;;26.50;10.20;;;;;;5062234;28;46459;-65
2022/07/27 11:16:02;;;;;;;6.40;2.00;;;26.50;10.10;;;;;;5062457;28;46405;-65
2022/07/27 11:18:30;;;;;;;3.80;2.00;;;26.70;10.00;;;;;;5060479;28;46387;-65
2022/07/27 11:21:29;;;;;;;5.30;2.07;;;26.60;10.00;;;;;;5059877;28;47152;-66
2022/07/27 11:23:58;;;;;;;5.83;2.00;;;26.70;10.20;;;;;;5062979;28;46453;-66
2022/07/27 11:26:27;;;;;;;6.43;2.03;;;26.90;10.20;;;;;;5062517;28;46428;-65
2022/07/27 11:28:53;;;;;;;13.63;2.17;;;26.90;10.00;;;;;;5060765;28;46425;-65
2022/07/27 11:31:19;;;;;;;4.77;2.03;;;27.30;8.50;;;;;;5065252;28;46345;-66
2022/07/27 11:33:52;;;;;;;5.17;1.90;;;27.30;9.00;;;;;;5060899;28;46818;-65
2022/07/27 11:36:19;;;;;;;4.23;1.80;;;27.50;8.80;;;;;;5063368;28;46022;-64
2022/07/27 11:38:53;;;;;;;3.92;2.00;;;27.70;8.70;;;;;;5058545;28;46237;-64
2022/07/27 11:41:27;;;;;;;3.80;1.73;;;27.80;8.30;;;;;;5060979;28;46217;-64
2022/07/27 11:43:54;;;;;;;8.90;1.90;;;28.10;8.10;;;;;;5060091;28;45743;-63
2022/07/27 11:46:25;;;;;;;5.73;1.73;;;28.60;8.60;;;;;;5059594;28;46404;-64
2022/07/27 11:48:59;;;;;;;4.23;1.97;;;28.50;7.00;;;;;;5061409;28;46338;-65
2022/07/27 11:51:25;;;;;;;5.38;2.20;;;28.00;8.00;;;;;;5060039;28;46718;-63
2022/07/27 11:54:02;;;;;;;4.10;1.83;;;27.60;7.20;;;;;;5063348;28;46339;-64
2022/07/27 11:56:31;;;;;;;9.70;1.90;;;27.90;7.40;;;;;;5062019;28;46405;-64
2022/07/27 11:59:02;;;;;;;7.30;2.30;;;28.10;7.70;;;;;;5057987;28;45930;-64
2022/07/27 12:01:34;;;;;;;6.47;1.90;;;28.00;7.70;;;;;;5060118;28;47454;-65
2022/07/27 12:04:18;;;;;;;5.23;1.90;;;27.70;8.10;;;;;;5059887;28;46522;-63
2022/07/27 12:07:09;;;;;;;4.10;1.90;;;27.20;8.40;;;;;;5059277;28;46413;-64
2022/07/27 12:09:46;;;;;;;7.83;2.10;;;27.00;9.00;;;;;;5060699;28;47007;-65
2022/07/27 12:12:15;;;;;;;3.57;1.90;;;26.80;9.20;;;;;;5058837;28;47263;-66
2022/07/27 12:14:44;;;;;;;4.43;2.00;;;26.90;8.90;;;;;;5059958;28;46659;-66
2022/07/27 12:17:33;;;;;;;8.07;1.67;;;27.20;8.70;;;;;;5058235;28;46925;-64
2022/07/27 12:20:05;;;;;;;4.50;1.77;;;27.80;8.60;;;;;;5059064;28;46618;-64
2022/07/27 12:22:39;;;;;;;5.40;2.00;;;28.40;8.00;;;;;;5057446;28;46496;-64
2022/07/27 12:25:09;;;;;;;4.40;1.73;;;28.80;7.10;;;;;;5056545;28;46433;-63
2022/07/27 12:27:36;;;;;;;3.80;1.80;;;28.80;6.90;;;;;;5058513;28;46720;-66
2022/07/27 12:30:09;;;;;;;3.43;1.67;;;28.40;7.00;;;;;;5060902;28;47334;-65
2022/07/27 12:32:41;;;;;;;8.20;2.40;;;28.30;7.00;;;;;;5059406;28;46643;-65
2022/07/27 12:35:21;;;;;;;5.73;1.83;;;28.20;7.40;;;;;;5058262;28;46419;-63
2022/07/27 12:37:54;;;;;;;3.13;1.77;;;28.20;7.00;;;;;;5058760;28;46558;-64
2022/07/27 12:40:20;;;;;;;6.33;2.07;;;28.40;6.80;;;;;;5060711;28;46421;-63
2022/07/27 12:42:58;;;;;;;5.23;2.00;;;28.30;7.00;;;;;;5060691;28;46509;-63
2022/07/27 12:45:30;;;;;;;11.10;2.30;;;28.30;6.60;;;;;;5059023;28;46432;-62
2022/07/27 12:48:24;;;;;;;4.37;1.80;;;28.30;6.70;;;;;;5063218;28;45873;-64
2022/07/27 12:51:04;;;;;;;3.87;1.90;;;28.10;6.80;;;;;;5056594;28;46593;-65
2022/07/27 12:53:31;;;;;;;3.13;2.00;;;27.80;7.50;;;;;;5058330;28;47157;-64
2022/07/27 12:56:00;;;;;;;7.57;2.30;;;27.40;7.10;;;;;;5059239;28;45873;-64
2022/07/27 12:58:25;;;;;;;4.20;2.00;;;27.20;7.80;;;;;;5057605;28;46434;-66